createdAt,value
2023-07-01T00:00:56.341Z,3.00
2023-07-01T00:01:56.510Z,3.01
2023-07-01T00:02:56.477Z,3.03
2023-07-01T00:03:56.594Z,3.03
2023-07-01T00:04:56.620Z,3.00
2023-07-01T00:05:56.654Z,2.95
2023-07-01T00:06:56.872Z,3.02
2023-07-01T00:07:56.756Z,3.02
2023-07-01T00:08:56.808Z,3.03
2023-07-01T00:09:56.848Z,2.96
2023-07-01T00:10:56.922Z,2.93
2023-07-01T00:11:56.925Z,3.00
2023-07-01T00:12:57.010Z,2.96
2023-07-01T00:13:57.072Z,3.03
2023-07-01T00:14:57.083Z,2.95
2023-07-01T00:15:57.320Z,3.02
2023-07-01T00:16:57.196Z,2.96
2023-07-01T00:17:57.314Z,2.95
2023-07-01T00:18:57.295Z,2.95
2023-07-01T00:19:57.304Z,2.95
2023-07-01T00:20:57.372Z,2.90
2023-07-01T00:21:57.383Z,2.94
2023-07-01T00:22:57.422Z,2.92
2023-07-01T00:23:57.456Z,2.87
2023-07-01T00:24:57.498Z,2.86
2023-07-01T00:25:57.540Z,2.84
2023-07-01T00:26:57.587Z,2.91
2023-07-01T00:27:57.629Z,2.81
2023-07-01T00:28:57.662Z,2.80
2023-07-01T00:29:57.741Z,2.81
2023-07-01T00:30:57.841Z,2.81
2023-07-01T00:31:57.868Z,2.77
2023-07-01T00:32:57.943Z,2.74
2023-07-01T00:33:57.973Z,2.82
2023-07-01T00:34:58.011Z,2.80
2023-07-01T00:35:58.081Z,2.77
2023-07-01T00:36:58.132Z,2.79
2023-07-01T00:37:58.122Z,2.70
2023-07-01T00:38:58.200Z,2.74
2023-07-01T00:39:58.260Z,2.71
2023-07-01T00:40:58.248Z,2.69
2023-07-01T00:41:58.361Z,2.62
2023-07-01T00:42:58.320Z,2.63
2023-07-01T00:43:58.393Z,2.70
2023-07-01T00:44:58.451Z,2.63
2023-07-01T00:45:58.520Z,2.62
2023-07-01T00:46:58.513Z,2.66
2023-07-01T00:47:58.586Z,2.62
2023-07-01T00:48:58.586Z,2.66
2023-07-01T00:49:58.586Z,2.62
2023-07-01T00:50:58.687Z,2.58
2023-07-01T00:51:58.694Z,2.61
2023-07-01T00:52:58.686Z,2.56
2023-07-01T00:53:58.682Z,2.56
2023-07-01T00:54:58.727Z,2.61
2023-07-01T00:55:58.769Z,2.53
2023-07-01T00:56:58.786Z,2.53
2023-07-01T00:57:58.792Z,2.55
2023-07-01T00:58:58.781Z,2.50
2023-07-01T00:59:58.792Z,2.52
2023-07-01T01:00:58.785Z,2.46
2023-07-01T01:01:58.774Z,2.54
2023-07-01T01:02:58.866Z,2.44
2023-07-01T01:03:58.777Z,2.45
2023-07-01T01:04:58.803Z,2.49
2023-07-01T01:05:58.807Z,2.46
2023-07-01T01:06:58.853Z,2.44
2023-07-01T01:08:00.780Z,2.44
2023-07-01T01:08:58.943Z,2.45
2023-07-01T01:09:58.942Z,2.45
2023-07-01T01:10:58.950Z,2.45
2023-07-01T01:11:58.956Z,2.41
2023-07-01T01:12:58.940Z,2.49
2023-07-01T01:13:58.965Z,2.44
2023-07-01T01:14:58.974Z,2.45
2023-07-01T01:15:59.053Z,2.42
2023-07-01T01:16:59.041Z,2.42
2023-07-01T01:17:59.070Z,2.41
2023-07-01T01:18:59.001Z,2.49
2023-07-01T01:19:59.036Z,2.42
2023-07-01T01:20:59.015Z,2.42
2023-07-01T01:22:00.183Z,2.44
2023-07-01T01:22:59.028Z,2.43
2023-07-01T01:23:59.011Z,2.41
2023-07-01T01:24:59.051Z,2.42
2023-07-01T01:25:59.099Z,2.39
2023-07-01T01:26:59.077Z,2.42
2023-07-01T01:27:59.108Z,2.34
2023-07-01T01:28:59.097Z,2.41
2023-07-01T01:29:59.105Z,2.43
2023-07-01T01:30:59.125Z,2.37
2023-07-01T01:31:59.385Z,2.38
2023-07-01T01:32:59.144Z,2.35
2023-07-01T01:33:59.138Z,2.41
2023-07-01T01:34:59.160Z,2.35
2023-07-01T01:35:59.209Z,2.38
2023-07-01T01:36:59.383Z,2.36
2023-07-01T01:37:59.229Z,2.39
2023-07-01T01:38:59.286Z,2.42
2023-07-01T01:39:59.271Z,2.35
2023-07-01T01:40:59.305Z,2.32
2023-07-01T01:41:59.395Z,2.36
2023-07-01T01:42:59.307Z,2.40
2023-07-01T01:43:59.356Z,2.37
2023-07-01T01:44:59.407Z,2.36
2023-07-01T01:45:59.379Z,2.39
2023-07-01T01:46:59.438Z,2.38
2023-07-01T01:47:59.427Z,2.39
2023-07-01T01:48:59.394Z,2.32
2023-07-01T01:49:59.412Z,2.28
2023-07-01T01:50:59.420Z,2.34
2023-07-01T01:51:59.443Z,2.36
2023-07-01T01:52:59.451Z,2.31
2023-07-01T01:53:59.537Z,2.27
2023-07-01T01:54:59.511Z,2.35
2023-07-01T01:55:59.519Z,2.34
2023-07-01T01:56:59.525Z,2.26
2023-07-01T01:57:59.522Z,2.33
2023-07-01T01:58:59.551Z,2.22
2023-07-01T01:59:59.658Z,2.24
2023-07-01T02:00:59.539Z,2.25
2023-07-01T02:01:59.691Z,2.22
2023-07-01T02:02:59.674Z,2.22
2023-07-01T02:03:59.796Z,2.24
2023-07-01T02:04:59.736Z,2.22
2023-07-01T02:05:59.641Z,2.19
2023-07-01T02:06:59.947Z,2.19
2023-07-01T02:07:59.712Z,2.25
2023-07-01T02:08:59.655Z,2.19
2023-07-01T02:09:59.802Z,2.22
2023-07-01T02:10:59.734Z,2.16
2023-07-01T02:11:59.914Z,2.18
2023-07-01T02:12:59.729Z,2.17
2023-07-01T02:13:59.775Z,2.20
2023-07-01T02:14:59.786Z,2.17
2023-07-01T02:15:59.791Z,2.15
2023-07-01T02:16:59.900Z,2.18
2023-07-01T02:17:59.834Z,2.16
2023-07-01T02:18:59.809Z,2.16
2023-07-01T02:19:59.859Z,2.14
2023-07-01T02:20:59.867Z,2.15
2023-07-01T02:21:59.922Z,2.16
2023-07-01T02:22:59.876Z,2.12
2023-07-01T02:23:59.897Z,2.14
2023-07-01T02:24:59.897Z,2.15
2023-07-01T02:25:59.886Z,2.17
2023-07-01T02:26:59.902Z,2.13
2023-07-01T02:27:59.937Z,2.14
2023-07-01T02:28:59.944Z,2.11
2023-07-01T02:29:59.959Z,2.09
2023-07-01T02:30:59.982Z,2.11
2023-07-01T02:32:00.422Z,2.12
2023-07-01T02:32:59.968Z,2.11
2023-07-01T02:33:59.975Z,2.12
2023-07-01T02:34:59.993Z,2.11
2023-07-01T02:35:59.989Z,2.07
2023-07-01T02:37:00.398Z,2.04
2023-07-01T02:38:00.013Z,2.13
2023-07-01T02:38:59.983Z,2.04
2023-07-01T02:40:00.007Z,2.05
2023-07-01T02:40:59.960Z,2.08
2023-07-01T02:42:00.412Z,2.08
2023-07-01T02:42:59.987Z,2.08
2023-07-01T02:43:59.972Z,2.06
2023-07-01T02:45:00.004Z,2.06
2023-07-01T02:45:59.993Z,2.08
2023-07-01T02:46:59.965Z,2.07
2023-07-01T02:48:00.019Z,2.11
2023-07-01T02:48:59.980Z,2.05
2023-07-01T02:49:59.993Z,2.07
2023-07-01T02:50:59.957Z,2.05
2023-07-01T02:51:59.983Z,2.05
2023-07-01T02:52:59.982Z,2.03
2023-07-01T02:54:00.054Z,2.03
2023-07-01T02:54:59.960Z,2.07
2023-07-01T02:55:59.979Z,2.04
2023-07-01T02:56:59.958Z,2.07
2023-07-01T02:57:59.944Z,2.08
2023-07-01T02:58:59.930Z,2.09
2023-07-01T02:59:59.909Z,2.03
2023-07-01T03:00:59.947Z,2.04
2023-07-01T03:02:00.065Z,2.03
2023-07-01T03:02:59.983Z,2.01
2023-07-01T03:04:05.663Z,2.04
2023-07-01T03:05:01.002Z,2.05
2023-07-01T03:05:59.961Z,2.03
2023-07-01T03:06:59.939Z,2.04
2023-07-01T03:07:59.974Z,2.04
2023-07-01T03:08:59.931Z,2.04
2023-07-01T03:09:59.943Z,2.01
2023-07-01T03:10:59.934Z,2.02
2023-07-01T03:11:59.954Z,2.05
2023-07-01T03:12:59.971Z,1.99
2023-07-01T03:13:59.946Z,1.99
2023-07-01T03:14:59.925Z,2.00
2023-07-01T03:16:00.093Z,1.97
2023-07-01T03:17:00.024Z,2.00
2023-07-01T03:17:59.996Z,1.97
2023-07-01T03:18:59.918Z,1.96
2023-07-01T03:19:59.900Z,1.92
2023-07-01T03:20:59.861Z,1.98
2023-07-01T03:21:59.855Z,1.92
2023-07-01T03:22:59.947Z,1.94
2023-07-01T03:23:59.872Z,1.93
2023-07-01T03:24:59.848Z,1.92
2023-07-01T03:25:59.825Z,1.94
2023-07-01T03:26:59.818Z,1.86
2023-07-01T03:27:59.980Z,1.89
2023-07-01T03:28:59.878Z,1.91
2023-07-01T03:29:59.805Z,1.89
2023-07-01T03:30:59.831Z,1.88
2023-07-01T03:31:59.871Z,1.89
2023-07-01T03:33:00.056Z,1.88
2023-07-01T03:33:59.807Z,1.87
2023-07-01T03:34:59.820Z,1.89
2023-07-01T03:35:59.768Z,1.88
2023-07-01T03:36:59.777Z,1.88
2023-07-01T03:37:59.960Z,1.85
2023-07-01T03:38:59.800Z,1.87
2023-07-01T03:39:59.759Z,1.86
2023-07-01T03:41:00.425Z,1.79
2023-07-01T03:41:59.754Z,1.84
2023-07-01T03:43:00.013Z,1.85
2023-07-01T03:43:59.779Z,1.86
2023-07-01T03:44:59.788Z,1.82
2023-07-01T03:45:59.874Z,1.84
2023-07-01T03:46:59.801Z,1.85
2023-07-01T03:47:59.962Z,1.81
2023-07-01T03:48:59.811Z,1.86
2023-07-01T03:49:59.829Z,1.86
2023-07-01T03:50:59.792Z,1.85
2023-07-01T03:51:59.845Z,1.82
2023-07-01T03:52:59.795Z,1.84
2023-07-01T03:53:59.803Z,1.81
2023-07-01T03:54:59.777Z,1.82
2023-07-01T03:55:59.795Z,1.81
2023-07-01T03:56:59.823Z,1.79
2023-07-01T03:57:59.798Z,1.82
2023-07-01T03:58:59.801Z,1.78
2023-07-01T03:59:59.777Z,1.82
2023-07-01T04:00:59.867Z,1.81
2023-07-01T04:01:59.811Z,1.83
2023-07-01T04:02:59.871Z,1.79
2023-07-01T04:03:59.824Z,1.79
2023-07-01T04:04:59.934Z,1.80
2023-07-01T04:05:59.786Z,1.78
2023-07-01T04:06:59.825Z,1.79
2023-07-01T04:07:59.795Z,1.79
2023-07-01T04:08:59.849Z,1.78
2023-07-01T04:09:59.818Z,1.77
2023-07-01T04:11:01.263Z,1.81
2023-07-01T04:11:59.834Z,1.81
2023-07-01T04:12:59.790Z,1.79
2023-07-01T04:13:59.797Z,1.79
2023-07-01T04:14:59.811Z,1.75
2023-07-01T04:15:59.789Z,1.77
2023-07-01T04:16:59.803Z,1.79
2023-07-01T04:17:59.846Z,1.74
2023-07-01T04:18:59.772Z,1.76
2023-07-01T04:19:59.815Z,1.74
2023-07-01T04:20:59.757Z,1.76
2023-07-01T04:21:59.777Z,1.76
2023-07-01T04:23:00.958Z,1.73
2023-07-01T04:23:59.729Z,1.73
2023-07-01T04:24:59.762Z,1.74
2023-07-01T04:25:59.700Z,1.74
2023-07-01T04:26:59.722Z,1.75
2023-07-01T04:27:59.916Z,1.74
2023-07-01T04:28:59.702Z,1.75
2023-07-01T04:29:59.731Z,1.74
2023-07-01T04:30:59.693Z,1.75
2023-07-01T04:31:59.655Z,1.71
2023-07-01T04:33:00.044Z,1.73
2023-07-01T04:33:59.654Z,1.76
2023-07-01T04:34:59.665Z,1.72
2023-07-01T04:35:59.658Z,1.72
2023-07-01T04:36:59.668Z,1.70
2023-07-01T04:37:59.970Z,1.71
2023-07-01T04:38:59.614Z,1.72
2023-07-01T04:39:59.619Z,1.72
2023-07-01T04:40:59.632Z,1.74
2023-07-01T04:41:59.609Z,1.74
2023-07-01T04:42:59.981Z,1.72
2023-07-01T04:43:59.613Z,1.72
2023-07-01T04:44:59.585Z,1.73
2023-07-01T04:45:59.558Z,1.72
2023-07-01T04:46:59.632Z,1.75
2023-07-01T04:48:00.069Z,1.74
2023-07-01T04:48:59.608Z,1.73
2023-07-01T04:49:59.550Z,1.73
2023-07-01T04:50:59.546Z,1.72
2023-07-01T04:51:59.577Z,1.77
2023-07-01T04:52:59.536Z,1.75
2023-07-01T04:53:59.535Z,1.71
2023-07-01T04:54:59.556Z,1.71
2023-07-01T04:55:59.561Z,1.71
2023-07-01T04:56:59.568Z,1.74
2023-07-01T04:57:59.975Z,1.70
2023-07-01T04:58:59.522Z,1.68
2023-07-01T04:59:59.567Z,1.69
2023-07-01T05:00:59.557Z,1.69
2023-07-01T05:01:59.621Z,1.70
2023-07-01T05:03:00.650Z,1.68
2023-07-01T05:03:59.554Z,1.70
2023-07-01T05:04:59.609Z,1.73
2023-07-01T05:05:59.456Z,1.73
2023-07-01T05:06:59.458Z,1.74
2023-07-01T05:07:59.509Z,1.74
2023-07-01T05:08:59.441Z,1.74
2023-07-01T05:09:59.451Z,1.74
2023-07-01T05:10:59.415Z,1.73
2023-07-01T05:11:59.455Z,1.70
2023-07-01T05:12:59.464Z,1.76
2023-07-01T05:13:59.413Z,1.72
2023-07-01T05:14:59.389Z,1.74
2023-07-01T05:15:59.426Z,1.72
2023-07-01T05:16:59.431Z,1.74
2023-07-01T05:17:59.529Z,1.76
2023-07-01T05:18:59.343Z,1.71
2023-07-01T05:19:59.366Z,1.65
2023-07-01T05:20:59.364Z,1.70
2023-07-01T05:21:59.334Z,1.71
2023-07-01T05:22:59.463Z,1.68
2023-07-01T05:23:59.336Z,1.67
2023-07-01T05:24:59.353Z,1.63
2023-07-01T05:25:59.278Z,1.65
2023-07-01T05:26:59.363Z,1.64
2023-07-01T05:27:59.553Z,1.66
2023-07-01T05:28:59.287Z,1.63
2023-07-01T05:29:59.326Z,1.64
2023-07-01T05:30:59.380Z,1.62
2023-07-01T05:31:59.281Z,1.63
2023-07-01T05:32:59.328Z,1.66
2023-07-01T05:33:59.251Z,1.63
2023-07-01T05:34:59.246Z,1.65
2023-07-01T05:35:59.245Z,1.64
2023-07-01T05:36:59.244Z,1.64
2023-07-01T05:37:59.262Z,1.61
2023-07-01T05:38:59.246Z,1.62
2023-07-01T05:39:59.230Z,1.62
2023-07-01T05:40:59.209Z,1.60
2023-07-01T05:41:59.217Z,1.67
2023-07-01T05:42:59.213Z,1.66
2023-07-01T05:44:00.289Z,1.66
2023-07-01T05:44:59.200Z,1.67
2023-07-01T05:45:59.206Z,1.65
2023-07-01T05:46:59.198Z,1.67
2023-07-01T05:47:59.219Z,1.67
2023-07-01T05:48:59.148Z,1.67
2023-07-01T05:49:59.203Z,1.62
2023-07-01T05:50:59.174Z,1.60
2023-07-01T05:51:59.135Z,1.59
2023-07-01T05:52:59.147Z,1.61
2023-07-01T05:53:59.134Z,1.51
2023-07-01T05:54:59.136Z,1.57
2023-07-01T05:55:59.129Z,1.58
2023-07-01T05:56:59.085Z,1.56
2023-07-01T05:57:59.098Z,1.55
2023-07-01T05:58:59.103Z,1.56
2023-07-01T05:59:59.116Z,1.55
2023-07-01T06:00:59.088Z,1.55
2023-07-01T06:01:59.132Z,1.55
2023-07-01T06:02:59.113Z,1.54
2023-07-01T06:03:59.077Z,1.61
2023-07-01T06:04:59.163Z,1.57
2023-07-01T06:05:59.065Z,1.51
2023-07-01T06:06:59.045Z,1.49
2023-07-01T06:07:59.087Z,1.49
2023-07-01T06:08:59.016Z,1.49
2023-07-01T06:09:59.982Z,1.47
2023-07-01T06:10:58.999Z,1.54
2023-07-01T06:11:59.021Z,1.49
2023-07-01T06:12:59.080Z,1.47
2023-07-01T06:13:58.977Z,1.50
2023-07-01T06:14:58.990Z,1.48
2023-07-01T06:15:58.967Z,1.45
2023-07-01T06:16:59.008Z,1.45
2023-07-01T06:17:58.961Z,1.45
2023-07-01T06:18:58.986Z,1.47
2023-07-01T06:19:58.959Z,1.47
2023-07-01T06:20:58.926Z,1.45
2023-07-01T06:21:58.952Z,1.49
2023-07-01T06:22:58.915Z,1.49
2023-07-01T06:23:58.900Z,1.47
2023-07-01T06:24:58.923Z,1.47
2023-07-01T06:25:58.892Z,1.45
2023-07-01T06:26:58.904Z,1.47
2023-07-01T06:27:58.901Z,1.47
2023-07-01T06:28:58.898Z,1.45
2023-07-01T06:29:58.884Z,1.48
2023-07-01T06:30:58.928Z,1.47
2023-07-01T06:31:58.903Z,1.42
2023-07-01T06:32:58.951Z,1.46
2023-07-01T06:33:59.495Z,1.47
2023-07-01T06:34:58.872Z,1.43
2023-07-01T06:35:58.843Z,1.44
2023-07-01T06:36:58.898Z,1.41
2023-07-01T06:37:58.868Z,1.40
2023-07-01T06:38:58.934Z,1.40
2023-07-01T06:39:58.803Z,1.27
2023-07-01T06:40:58.815Z,1.22
2023-07-01T06:41:58.879Z,1.28
2023-07-01T06:42:58.837Z,1.34
2023-07-01T06:43:58.805Z,1.37
2023-07-01T06:44:58.790Z,1.37
2023-07-01T06:45:58.818Z,1.38
2023-07-01T06:46:58.774Z,1.36
2023-07-01T06:47:58.805Z,1.35
2023-07-01T06:48:58.766Z,1.32
2023-07-01T06:49:58.738Z,1.32
2023-07-01T06:50:58.739Z,1.34
2023-07-01T06:51:58.748Z,1.37
2023-07-01T06:52:58.740Z,1.33
2023-07-01T06:53:58.753Z,1.31
2023-07-01T06:54:58.746Z,1.28
2023-07-01T06:55:58.710Z,1.25
2023-07-01T06:56:58.691Z,1.27
2023-07-01T06:57:58.702Z,1.26
2023-07-01T06:58:58.679Z,1.25
2023-07-01T06:59:58.675Z,1.27
2023-07-01T07:00:58.796Z,1.27
2023-07-01T07:01:58.679Z,1.28
2023-07-01T07:02:58.723Z,1.27
2023-07-01T07:03:58.637Z,1.27
2023-07-01T07:04:58.656Z,1.26
2023-07-01T07:05:58.621Z,1.27
2023-07-01T07:06:58.632Z,1.28
2023-07-01T07:07:58.645Z,1.25
2023-07-01T07:08:58.625Z,1.22
2023-07-01T07:09:58.573Z,1.19
2023-07-01T07:10:58.619Z,1.18
2023-07-01T07:11:58.566Z,1.19
2023-07-01T07:12:58.625Z,1.18
2023-07-01T07:13:58.588Z,1.19
2023-07-01T07:14:58.576Z,1.17
2023-07-01T07:15:58.590Z,1.06
2023-07-01T07:16:58.597Z,1.12
2023-07-01T07:17:58.658Z,1.14
2023-07-01T07:18:58.529Z,1.16
2023-07-01T07:19:58.530Z,1.18
2023-07-01T07:20:58.538Z,1.17
2023-07-01T07:21:58.529Z,1.19
2023-07-01T07:22:58.532Z,1.17
2023-07-01T07:23:59.550Z,1.16
2023-07-01T07:24:58.821Z,1.15
2023-07-01T07:25:58.729Z,1.15
2023-07-01T07:26:58.739Z,1.12
2023-07-01T07:27:58.774Z,1.15
2023-07-01T07:28:58.739Z,1.13
2023-07-01T07:29:58.794Z,1.11
2023-07-01T07:30:58.759Z,1.12
2023-07-01T07:31:58.745Z,1.07
2023-07-01T07:32:58.757Z,1.08
2023-07-01T07:33:58.767Z,1.07
2023-07-01T07:34:58.766Z,1.11
2023-07-01T07:35:58.770Z,0.97
2023-07-01T07:36:58.782Z,0.86
2023-07-01T07:37:58.819Z,0.82
2023-07-01T07:38:58.806Z,0.83
2023-07-01T07:39:58.861Z,0.73
2023-07-01T07:40:58.894Z,0.77
2023-07-01T07:41:58.904Z,0.82
2023-07-01T07:42:58.935Z,0.89
2023-07-01T07:43:58.920Z,0.93
2023-07-01T07:44:58.908Z,0.94
2023-07-01T07:45:58.946Z,0.98
2023-07-01T07:46:59.046Z,1.01
2023-07-01T07:47:59.033Z,0.94
2023-07-01T07:48:58.979Z,0.92
2023-07-01T07:49:58.977Z,0.95
2023-07-01T07:50:58.992Z,0.96
2023-07-01T07:51:58.966Z,0.98
2023-07-01T07:52:58.992Z,0.95
2023-07-01T07:53:58.968Z,0.90
2023-07-01T07:54:59.011Z,0.89
2023-07-01T07:55:59.023Z,0.89
2023-07-01T07:56:59.040Z,0.93
2023-07-01T07:57:59.042Z,0.92
2023-07-01T07:58:59.029Z,0.92
2023-07-01T07:59:59.010Z,0.85
2023-07-01T08:00:59.054Z,0.81
2023-07-01T08:01:59.164Z,0.85
2023-07-01T08:02:59.081Z,0.86
2023-07-01T08:03:59.253Z,0.89
2023-07-01T08:04:59.204Z,0.92
2023-07-01T08:05:59.114Z,0.89
2023-07-01T08:06:59.181Z,0.86
2023-07-01T08:07:59.138Z,0.91
2023-07-01T08:08:59.206Z,0.91
2023-07-01T08:09:59.132Z,0.87
2023-07-01T08:10:59.156Z,0.90
2023-07-01T08:11:59.172Z,0.93
2023-07-01T08:12:59.215Z,0.92
2023-07-01T08:13:59.188Z,0.91
2023-07-01T08:14:59.202Z,0.92
2023-07-01T08:15:59.235Z,0.90
2023-07-01T08:16:59.257Z,0.91
2023-07-01T08:17:59.293Z,0.89
2023-07-01T08:18:59.331Z,0.91
2023-07-01T08:19:59.266Z,0.91
2023-07-01T08:20:59.248Z,0.92
2023-07-01T08:21:59.256Z,0.89
2023-07-01T08:22:59.311Z,0.90
2023-07-01T08:23:59.277Z,0.91
2023-07-01T08:24:59.246Z,0.91
2023-07-01T08:25:59.227Z,0.94
2023-07-01T08:26:59.270Z,0.89
2023-07-01T08:27:59.298Z,0.92
2023-07-01T08:28:59.286Z,0.95
2023-07-01T08:29:59.276Z,0.95
2023-07-01T08:30:59.336Z,0.93
2023-07-01T08:31:59.266Z,0.82
2023-07-01T08:32:59.398Z,0.78
2023-07-01T08:33:59.273Z,0.79
2023-07-01T08:34:59.315Z,0.84
2023-07-01T08:35:59.321Z,0.81
2023-07-01T08:37:00.864Z,0.83
2023-07-01T08:37:59.340Z,0.84
2023-07-01T08:38:59.283Z,0.88
2023-07-01T08:39:59.306Z,0.87
2023-07-01T08:40:59.318Z,0.85
2023-07-01T08:41:59.307Z,0.85
2023-07-01T08:42:59.269Z,0.87
2023-07-01T08:43:59.286Z,0.87
2023-07-01T08:44:59.284Z,0.88
2023-07-01T08:45:59.332Z,0.86
2023-07-01T08:46:59.259Z,0.87
2023-07-01T08:47:59.326Z,0.90
2023-07-01T08:48:59.230Z,0.86
2023-07-01T08:50:00.511Z,0.85
2023-07-01T08:50:59.230Z,0.85
2023-07-01T08:51:59.242Z,0.85
2023-07-01T08:52:59.199Z,0.80
2023-07-01T08:53:59.210Z,0.85
2023-07-01T08:54:59.228Z,0.88
2023-07-01T08:55:59.221Z,0.88
2023-07-01T08:56:59.188Z,0.88
2023-07-01T08:57:59.210Z,0.90
2023-07-01T08:58:59.179Z,0.90
2023-07-01T08:59:59.191Z,0.93
2023-07-01T09:00:59.153Z,0.91
2023-07-01T09:01:59.190Z,0.89
2023-07-01T09:02:59.184Z,0.91
2023-07-01T09:03:59.209Z,0.92
2023-07-01T09:04:59.324Z,0.94
2023-07-01T09:05:59.144Z,0.94
2023-07-01T09:06:59.141Z,0.95
2023-07-01T09:07:59.547Z,0.95
2023-07-01T09:08:59.107Z,0.97
2023-07-01T09:09:59.136Z,0.98
2023-07-01T09:10:59.176Z,0.96
2023-07-01T09:11:59.109Z,0.96
2023-07-01T09:12:59.144Z,0.97
2023-07-01T09:13:59.102Z,1.03
2023-07-01T09:14:59.149Z,1.02
2023-07-01T09:15:59.180Z,0.99
2023-07-01T09:16:59.122Z,0.99
2023-07-01T09:17:59.156Z,1.00
2023-07-01T09:18:59.218Z,1.02
2023-07-01T09:19:59.161Z,1.01
2023-07-01T09:20:59.118Z,1.00
2023-07-01T09:21:59.132Z,1.00
2023-07-01T09:22:59.137Z,0.99
2023-07-01T09:23:59.151Z,0.99
2023-07-01T09:24:59.187Z,0.97
2023-07-01T09:25:59.161Z,0.98
2023-07-01T09:26:59.157Z,0.97
2023-07-01T09:27:59.170Z,0.98
2023-07-01T09:28:59.186Z,0.98
2023-07-01T09:29:59.189Z,0.99
2023-07-01T09:30:59.178Z,0.99
2023-07-01T09:31:59.254Z,0.96
2023-07-01T09:32:59.221Z,0.98
2023-07-01T09:33:59.179Z,1.00
2023-07-01T09:34:59.180Z,0.97
2023-07-01T09:35:59.204Z,0.97
2023-07-01T09:36:59.204Z,0.97
2023-07-01T09:37:59.209Z,0.98
2023-07-01T09:38:59.217Z,0.98
2023-07-01T09:39:59.188Z,0.96
2023-07-01T09:40:59.237Z,0.95
2023-07-01T09:41:59.254Z,0.96
2023-07-01T09:42:59.562Z,0.96
2023-07-01T09:43:59.198Z,0.95
2023-07-01T09:44:59.191Z,0.97
2023-07-01T09:45:59.216Z,0.97
2023-07-01T09:46:59.195Z,0.97
2023-07-01T09:47:59.277Z,0.99
2023-07-01T09:48:59.224Z,0.96
2023-07-01T09:49:59.187Z,0.97
2023-07-01T09:50:59.239Z,0.96
2023-07-01T09:51:59.206Z,0.95
2023-07-01T09:52:59.215Z,0.95
2023-07-01T09:53:59.208Z,0.95
2023-07-01T09:54:59.224Z,0.95
2023-07-01T09:55:59.235Z,0.95
2023-07-01T09:56:59.232Z,0.97
2023-07-01T09:57:59.589Z,0.96
2023-07-01T09:58:59.202Z,0.96
2023-07-01T09:59:59.220Z,0.98
2023-07-01T10:00:59.273Z,1.01
2023-07-01T10:01:59.272Z,0.99
2023-07-01T10:02:59.373Z,0.98
2023-07-01T10:03:59.405Z,0.96
2023-07-01T10:04:59.290Z,0.96
2023-07-01T10:05:59.250Z,0.97
2023-07-01T10:06:59.271Z,0.99
2023-07-01T10:07:59.586Z,0.98
2023-07-01T10:08:59.289Z,1.00
2023-07-01T10:09:59.267Z,1.01
2023-07-01T10:10:59.262Z,1.04
2023-07-01T10:11:59.284Z,1.04
2023-07-01T10:12:59.545Z,1.03
2023-07-01T10:13:59.380Z,1.02
2023-07-01T10:14:59.265Z,0.99
2023-07-01T10:15:59.260Z,0.99
2023-07-01T10:16:59.426Z,0.99
2023-07-01T10:17:59.625Z,1.00
2023-07-01T10:18:59.284Z,0.99
2023-07-01T10:19:59.297Z,0.99
2023-07-01T10:20:59.302Z,0.99
2023-07-01T10:21:59.317Z,0.98
2023-07-01T10:22:59.628Z,0.98
2023-07-01T10:23:59.358Z,0.96
2023-07-01T10:24:59.376Z,0.95
2023-07-01T10:25:59.317Z,0.97
2023-07-01T10:26:59.332Z,0.96
2023-07-01T10:27:59.355Z,0.96
2023-07-01T10:28:59.375Z,0.97
2023-07-01T10:29:59.296Z,0.95
2023-07-01T10:30:59.323Z,0.98
2023-07-01T10:31:59.385Z,0.97
2023-07-01T10:32:59.345Z,1.01
2023-07-01T10:33:59.301Z,0.99
2023-07-01T10:34:59.337Z,1.00
2023-07-01T10:35:59.322Z,0.99
2023-07-01T10:36:59.317Z,0.95
2023-07-01T10:37:59.342Z,0.94
2023-07-01T10:38:59.334Z,0.95
2023-07-01T10:40:00.075Z,0.94
2023-07-01T10:40:59.313Z,0.95
2023-07-01T10:41:59.357Z,0.92
2023-07-01T10:42:59.356Z,0.92
2023-07-01T10:43:59.340Z,0.92
2023-07-01T10:44:59.368Z,0.93
2023-07-01T10:45:59.324Z,0.95
2023-07-01T10:46:59.443Z,0.94
2023-07-01T10:47:59.473Z,0.91
2023-07-01T10:48:59.378Z,0.91
2023-07-01T10:49:59.350Z,0.93
2023-07-01T10:50:59.344Z,0.95
2023-07-01T10:51:59.333Z,0.93
2023-07-01T10:52:59.343Z,0.88
2023-07-01T10:53:59.449Z,0.85
2023-07-01T10:54:59.382Z,0.83
2023-07-01T10:55:59.339Z,0.80
2023-07-01T10:56:59.366Z,0.79
2023-07-01T10:57:59.379Z,0.77
2023-07-01T10:58:59.381Z,0.81
2023-07-01T10:59:59.374Z,0.80
2023-07-01T11:00:59.374Z,0.80
2023-07-01T11:01:59.416Z,0.78
2023-07-01T11:02:59.627Z,0.79
2023-07-01T11:03:59.632Z,0.81
2023-07-01T11:04:59.389Z,0.80
2023-07-01T11:05:59.480Z,0.82
2023-07-01T11:06:59.417Z,0.83
2023-07-01T11:07:59.580Z,0.85
2023-07-01T11:08:59.418Z,0.84
2023-07-01T11:09:59.485Z,0.86
2023-07-01T11:10:59.370Z,0.86
2023-07-01T11:11:59.426Z,0.86
2023-07-01T11:12:59.405Z,0.87
2023-07-01T11:13:59.380Z,0.86
2023-07-01T11:14:59.390Z,0.86
2023-07-01T11:15:59.399Z,0.87
2023-07-01T11:16:59.399Z,0.89
2023-07-01T11:17:59.462Z,0.89
2023-07-01T11:18:59.408Z,0.87
2023-07-01T11:19:59.422Z,0.88
2023-07-01T11:20:59.431Z,0.87
2023-07-01T11:21:59.385Z,0.84
2023-07-01T11:22:59.397Z,0.84
2023-07-01T11:23:59.453Z,0.86
2023-07-01T11:24:59.451Z,0.85
2023-07-01T11:25:59.420Z,0.85
2023-07-01T11:26:59.425Z,0.86
2023-07-01T11:27:59.441Z,0.86
2023-07-01T11:28:59.490Z,0.88
2023-07-01T11:29:59.474Z,0.87
2023-07-01T11:30:59.503Z,0.89
2023-07-01T11:31:59.579Z,0.88
2023-07-01T11:32:59.538Z,0.87
2023-07-01T11:33:59.511Z,0.90
2023-07-01T11:34:59.596Z,0.88
2023-07-01T11:35:59.563Z,0.87
2023-07-01T11:36:59.575Z,0.85
2023-07-01T11:37:59.557Z,0.86
2023-07-01T11:38:59.548Z,0.84
2023-07-01T11:39:59.563Z,0.86
2023-07-01T11:40:59.563Z,0.85
2023-07-01T11:41:59.587Z,0.87
2023-07-01T11:42:59.576Z,0.87
2023-07-01T11:43:59.598Z,0.88
2023-07-01T11:44:59.590Z,0.89
2023-07-01T11:45:59.739Z,0.89
2023-07-01T11:46:59.620Z,0.90
2023-07-01T11:47:59.688Z,0.88
2023-07-01T11:48:59.624Z,0.88
2023-07-01T11:49:59.664Z,0.81
2023-07-01T11:50:59.700Z,0.75
2023-07-01T11:51:59.658Z,0.76
2023-07-01T11:52:59.701Z,0.73
2023-07-01T11:53:59.737Z,0.69
2023-07-01T11:54:59.710Z,0.68
2023-07-01T11:55:59.755Z,0.66
2023-07-01T11:56:59.729Z,0.67
2023-07-01T11:57:59.727Z,0.62
2023-07-01T11:59:01.545Z,0.62
2023-07-01T12:00:00.177Z,0.59
2023-07-01T12:00:59.819Z,0.60
2023-07-01T12:01:59.886Z,0.56
2023-07-01T12:02:59.885Z,0.56
2023-07-01T12:03:59.936Z,0.56
2023-07-01T12:05:00.026Z,0.58
2023-07-01T12:05:59.946Z,0.59
2023-07-01T12:07:00.545Z,0.60
2023-07-01T12:08:00.008Z,0.61
2023-07-01T12:09:08.151Z,0.54
2023-07-01T12:10:01.060Z,0.49
2023-07-01T12:11:00.038Z,0.47
2023-07-01T12:11:59.986Z,0.48
2023-07-01T12:13:00.384Z,0.50
2023-07-01T12:13:59.973Z,0.51
2023-07-01T12:15:00.028Z,0.51
2023-07-01T12:16:00.043Z,0.51
2023-07-01T12:16:59.977Z,0.53
2023-07-01T12:18:00.036Z,0.51
2023-07-01T12:19:01.234Z,0.51
2023-07-01T12:20:00.033Z,0.52
2023-07-01T12:20:59.987Z,0.54
2023-07-01T12:22:00.010Z,0.56
2023-07-01T12:23:00.041Z,0.55
2023-07-01T12:24:00.083Z,0.56
2023-07-01T12:25:02.922Z,0.56
2023-07-01T12:26:00.135Z,0.58
2023-07-01T12:27:00.112Z,0.59
2023-07-01T12:28:00.113Z,0.59
2023-07-01T12:29:00.098Z,0.59
2023-07-01T12:30:00.205Z,0.54
2023-07-01T12:31:00.083Z,0.50
2023-07-01T12:32:00.068Z,0.53
2023-07-01T12:33:00.155Z,0.52
2023-07-01T12:34:00.087Z,0.50
2023-07-01T12:35:00.015Z,0.50
2023-07-01T12:36:00.066Z,0.51
2023-07-01T12:37:00.036Z,0.50
2023-07-01T12:38:00.010Z,0.50
2023-07-01T12:39:00.047Z,0.50
2023-07-01T12:40:00.069Z,0.53
2023-07-01T12:41:00.031Z,0.56
2023-07-01T12:42:00.001Z,0.59
2023-07-01T12:43:00.022Z,0.61
2023-07-01T12:44:00.052Z,0.63
2023-07-01T12:44:59.967Z,0.66
2023-07-01T12:46:00.031Z,0.70
2023-07-01T12:46:59.972Z,0.72
2023-07-01T12:48:00.040Z,0.73
2023-07-01T12:48:59.950Z,0.72
2023-07-01T12:49:59.960Z,0.69
2023-07-01T12:50:59.939Z,0.69
2023-07-01T12:51:59.967Z,0.68
2023-07-01T12:53:00.100Z,0.68
2023-07-01T12:54:15.642Z,0.71
2023-07-01T12:55:00.982Z,0.71
2023-07-01T12:55:59.961Z,0.65
2023-07-01T12:56:59.977Z,0.65
2023-07-01T12:58:00.145Z,0.68
2023-07-01T12:58:59.968Z,0.69
2023-07-01T12:59:59.976Z,0.74
2023-07-01T13:01:10.187Z,0.71
2023-07-01T13:02:00.014Z,0.71
2023-07-01T13:03:00.006Z,0.72
2023-07-01T13:03:59.932Z,0.72
2023-07-01T13:04:59.963Z,0.76
2023-07-01T13:06:00.028Z,0.80
2023-07-01T13:06:59.898Z,0.72
2023-07-01T13:07:59.941Z,0.72
2023-07-01T13:08:59.879Z,0.62
2023-07-01T13:09:59.892Z,0.59
2023-07-01T13:10:59.876Z,0.61
2023-07-01T13:11:59.876Z,0.63
2023-07-01T13:12:59.876Z,0.65
2023-07-01T13:13:59.861Z,0.64
2023-07-01T13:14:59.828Z,0.64
2023-07-01T13:15:59.873Z,0.60
2023-07-01T13:16:59.962Z,0.59
2023-07-01T13:17:59.865Z,0.52
2023-07-01T13:18:59.823Z,0.51